createdAt,value
2023-04-26T00:00:48.116Z,1.73
2023-04-26T00:03:14.626Z,2.47
2023-04-26T00:05:41.125Z,1.63
2023-04-26T00:08:07.456Z,2.10
2023-04-26T00:10:33.739Z,2.00
2023-04-26T00:12:59.984Z,1.80
2023-04-26T00:15:26.264Z,1.97
2023-04-26T00:17:53.001Z,1.90
2023-04-26T00:20:19.711Z,1.43
2023-04-26T00:22:46.634Z,1.70
2023-04-26T00:25:13.908Z,2.13
2023-04-26T00:27:40.516Z,2.03
2023-04-26T00:30:07.091Z,1.43
2023-04-26T00:32:35.334Z,1.60
2023-04-26T00:35:03.377Z,1.90
2023-04-26T00:37:29.748Z,1.73
2023-04-26T00:39:57.362Z,1.77
2023-04-26T00:42:23.675Z,2.10
2023-04-26T00:44:50.363Z,1.97
2023-04-26T00:47:16.594Z,1.90
2023-04-26T00:49:42.824Z,1.90
2023-04-26T00:52:09.442Z,2.63
2023-04-26T00:54:36.001Z,1.73
2023-04-26T00:57:02.301Z,1.70
2023-04-26T00:59:28.756Z,1.83
2023-04-26T01:01:55.977Z,2.33
2023-04-26T01:04:26.237Z,2.17
2023-04-26T01:06:52.676Z,1.97
2023-04-26T01:09:19.119Z,1.77
2023-04-26T01:11:45.462Z,1.73
2023-04-26T01:14:11.862Z,2.47
2023-04-26T01:16:38.651Z,2.40
2023-04-26T01:19:09.503Z,1.70
2023-04-26T01:21:36.425Z,2.23
2023-04-26T01:24:02.949Z,2.37
2023-04-26T01:26:29.210Z,2.30
2023-04-26T01:28:55.876Z,1.87
2023-04-26T01:31:22.254Z,1.80
2023-04-26T01:33:48.494Z,1.70
2023-04-26T01:36:14.794Z,2.03
2023-04-26T01:38:41.031Z,2.33
2023-04-26T01:41:07.508Z,1.93
2023-04-26T01:43:33.926Z,1.90
2023-04-26T01:46:00.236Z,2.20
2023-04-26T01:48:26.527Z,1.97
2023-04-26T01:50:52.778Z,2.20
2023-04-26T01:53:19.075Z,2.13
2023-04-26T01:55:45.356Z,1.57
2023-04-26T01:58:11.633Z,1.70
2023-04-26T02:00:37.864Z,2.00
2023-04-26T02:03:04.249Z,2.10
2023-04-26T02:05:30.813Z,1.77
2023-04-26T02:07:57.090Z,2.00
2023-04-26T02:10:23.369Z,2.17
2023-04-26T02:12:49.602Z,2.07
2023-04-26T02:15:16.010Z,1.83
2023-04-26T02:17:42.504Z,2.53
2023-04-26T02:20:10.393Z,2.10
2023-04-26T02:22:36.897Z,2.10
2023-04-26T02:25:03.491Z,2.10
2023-04-26T02:27:29.793Z,1.90
2023-04-26T02:29:56.068Z,1.87
2023-04-26T02:32:22.350Z,2.47
2023-04-26T02:34:48.666Z,2.30
2023-04-26T02:37:15.001Z,2.03
2023-04-26T02:39:41.383Z,2.20
2023-04-26T02:42:10.753Z,1.80
2023-04-26T02:44:37.639Z,1.77
2023-04-26T02:47:04.005Z,2.50
2023-04-26T02:49:30.704Z,2.00
2023-04-26T02:51:57.001Z,1.90
2023-04-26T02:54:23.259Z,1.80
2023-04-26T02:56:49.522Z,2.10
2023-04-26T02:59:15.846Z,1.80
2023-04-26T03:01:42.151Z,3.00
2023-04-26T03:04:08.487Z,2.20
2023-04-26T03:06:35.031Z,1.87
2023-04-26T03:09:01.421Z,2.10
2023-04-26T03:11:27.731Z,1.80
2023-04-26T03:13:53.977Z,2.30
2023-04-26T03:16:21.432Z,2.17
2023-04-26T03:18:47.762Z,2.20
2023-04-26T03:21:14.142Z,1.87
2023-04-26T03:23:40.378Z,1.90
2023-04-26T03:26:06.901Z,2.30
2023-04-26T03:28:33.199Z,2.27
2023-04-26T03:30:59.452Z,2.30
2023-04-26T03:33:25.828Z,2.47
2023-04-26T03:35:52.193Z,2.70
2023-04-26T03:38:18.409Z,2.13
2023-04-26T03:40:44.705Z,2.17
2023-04-26T03:43:10.953Z,2.47
2023-04-26T03:45:37.228Z,1.83
2023-04-26T03:48:03.611Z,2.30
2023-04-26T03:50:30.125Z,2.57
2023-04-26T03:52:56.571Z,2.20
2023-04-26T03:55:22.864Z,2.50
2023-04-26T03:57:49.141Z,2.27
2023-04-26T04:00:15.632Z,2.33
2023-04-26T04:02:42.583Z,2.17
2023-04-26T04:05:09.467Z,2.40
2023-04-26T04:07:36.141Z,2.10
2023-04-26T04:10:02.370Z,2.70
2023-04-26T04:12:28.652Z,2.57
2023-04-26T04:14:54.994Z,2.30
2023-04-26T04:17:21.230Z,2.70
2023-04-26T04:19:48.055Z,2.07
2023-04-26T04:22:14.368Z,2.67
2023-04-26T04:24:42.339Z,2.37
2023-04-26T04:27:08.904Z,2.90
2023-04-26T04:29:35.220Z,2.60
2023-04-26T04:32:02.128Z,2.47
2023-04-26T04:34:28.359Z,2.50
2023-04-26T04:36:54.835Z,3.03
2023-04-26T04:39:21.345Z,2.20
2023-04-26T04:41:48.326Z,2.23
2023-04-26T04:44:16.272Z,2.77
2023-04-26T04:46:43.072Z,3.27
2023-04-26T04:49:09.633Z,2.90
2023-04-26T04:51:36.151Z,2.43
2023-04-26T04:54:18.202Z,2.80
2023-04-26T04:56:44.693Z,3.07
2023-04-26T04:59:11.502Z,2.60
2023-04-26T05:01:38.523Z,2.20
2023-04-26T05:04:05.889Z,2.70
2023-04-26T05:06:32.353Z,2.50
2023-04-26T05:08:58.654Z,3.00
2023-04-26T05:11:24.976Z,2.70
2023-04-26T05:13:52.806Z,2.93
2023-04-26T05:16:19.265Z,2.80
2023-04-26T05:18:45.706Z,3.00
2023-04-26T05:21:11.932Z,3.17
2023-04-26T05:23:38.303Z,2.23
2023-04-26T05:26:05.061Z,2.53
2023-04-26T05:28:31.550Z,2.57
2023-04-26T05:30:58.101Z,2.67
2023-04-26T05:33:24.331Z,2.50
2023-04-26T05:35:50.759Z,2.40
2023-04-26T05:38:17.046Z,2.43
2023-04-26T05:40:43.931Z,2.83
2023-04-26T05:43:10.216Z,2.97
2023-04-26T05:45:36.532Z,2.30
2023-04-26T05:48:02.934Z,2.60
2023-04-26T05:50:29.281Z,2.40
2023-04-26T05:52:55.680Z,2.43
2023-04-26T05:55:22.265Z,2.53
2023-04-26T05:57:48.690Z,2.57
2023-04-26T06:00:15.585Z,2.63
2023-04-26T06:02:42.243Z,2.10
2023-04-26T06:05:08.970Z,2.37
2023-04-26T06:07:36.017Z,2.27
2023-04-26T06:10:02.622Z,2.03
2023-04-26T06:12:28.893Z,2.00
2023-04-26T06:14:55.266Z,2.13
2023-04-26T06:17:21.728Z,1.80
2023-04-26T06:19:48.002Z,2.67
2023-04-26T06:22:14.238Z,1.87
2023-04-26T06:24:40.967Z,2.30
2023-04-26T06:27:07.253Z,2.20
2023-04-26T06:29:33.885Z,2.50
2023-04-26T06:32:00.307Z,2.27
2023-04-26T06:34:27.126Z,2.20
2023-04-26T06:36:53.638Z,2.20
2023-04-26T06:39:19.893Z,2.10
2023-04-26T06:41:46.158Z,2.50
2023-04-26T06:44:12.394Z,2.23
2023-04-26T06:46:38.743Z,2.27
2023-04-26T06:49:05.261Z,2.20
2023-04-26T06:51:31.565Z,1.70
2023-04-26T06:53:59.101Z,2.00
2023-04-26T06:56:25.373Z,2.27
2023-04-26T06:58:58.877Z,1.90
2023-04-26T07:01:25.160Z,1.90
2023-04-26T07:03:51.765Z,1.97
2023-04-26T07:06:18.267Z,2.63
2023-04-26T07:08:44.504Z,1.80
2023-04-26T07:11:11.332Z,2.20
2023-04-26T07:13:39.678Z,1.70
2023-04-26T07:16:06.120Z,2.78
2023-04-26T07:18:32.396Z,1.90
2023-04-26T07:20:58.620Z,2.58
2023-04-26T07:23:24.865Z,2.00
2023-04-26T07:25:51.132Z,2.28
2023-04-26T07:28:20.595Z,2.20
2023-04-26T07:30:46.809Z,1.85
2023-04-26T07:33:13.153Z,1.60
2023-04-26T07:35:39.490Z,1.77
2023-04-26T07:38:06.868Z,1.80
2023-04-26T07:40:33.085Z,1.92
2023-04-26T07:42:59.315Z,1.70
2023-04-26T07:45:26.591Z,1.83
2023-04-26T07:47:53.225Z,1.88
2023-04-26T07:50:19.756Z,2.50
2023-04-26T07:52:46.466Z,2.20
2023-04-26T07:55:12.739Z,2.23
2023-04-26T07:57:44.067Z,2.30
2023-04-26T08:00:10.858Z,1.97
2023-04-26T08:02:44.734Z,1.70
2023-04-26T08:05:11.890Z,1.73
2023-04-26T08:07:38.248Z,1.60
2023-04-26T08:10:04.649Z,1.80
2023-04-26T08:12:31.290Z,2.23
2023-04-26T08:14:57.513Z,2.00
2023-04-26T08:17:23.775Z,1.57
2023-04-26T08:19:50.108Z,1.90
2023-04-26T08:22:16.369Z,1.83
2023-04-26T08:24:47.105Z,1.77
2023-04-26T08:27:13.339Z,2.00
2023-04-26T08:29:39.560Z,2.10
2023-04-26T08:32:05.835Z,1.80
2023-04-26T08:34:32.390Z,1.53
2023-04-26T08:36:58.607Z,1.93
2023-04-26T08:39:24.901Z,1.60
2023-04-26T08:41:54.808Z,1.93
2023-04-26T08:44:23.840Z,2.00
2023-04-26T08:47:03.576Z,1.63
2023-04-26T08:49:40.395Z,1.60
2023-04-26T08:52:08.884Z,1.80
2023-04-26T08:54:36.368Z,1.93
2023-04-26T08:57:02.731Z,1.87
2023-04-26T08:59:31.017Z,1.60
2023-04-26T09:01:58.282Z,1.40
2023-04-26T09:04:24.874Z,1.50
2023-04-26T09:06:51.599Z,1.90
2023-04-26T09:09:20.051Z,1.50
2023-04-26T09:11:56.567Z,1.53
2023-04-26T09:14:22.818Z,1.77
2023-04-26T09:16:49.262Z,1.77
2023-04-26T09:19:15.554Z,1.57
2023-04-26T09:21:45.547Z,1.70
2023-04-26T09:24:12.412Z,1.83
2023-04-26T09:26:39.009Z,1.53
2023-04-26T09:29:18.799Z,2.17
2023-04-26T09:31:49.953Z,2.17
2023-04-26T09:34:16.533Z,1.80
2023-04-26T09:36:46.643Z,1.70
2023-04-26T09:39:13.166Z,1.43
2023-04-26T09:41:44.107Z,1.80
2023-04-26T09:44:29.176Z,1.60
2023-04-26T09:46:59.038Z,1.80
2023-04-26T09:49:26.354Z,2.03
2023-04-26T09:52:05.220Z,1.80
2023-04-26T09:54:41.730Z,2.10
2023-04-26T09:57:07.985Z,1.53
2023-04-26T09:59:41.009Z,1.40
2023-04-26T10:02:15.400Z,1.60
2023-04-26T10:04:43.708Z,1.73
2023-04-26T10:07:10.066Z,1.87
2023-04-26T10:09:36.394Z,1.60
2023-04-26T10:12:03.385Z,1.40
2023-04-26T10:14:29.837Z,1.80
2023-04-26T10:16:57.185Z,1.77
2023-04-26T10:19:23.796Z,2.10
2023-04-26T10:21:51.312Z,1.80
2023-04-26T10:24:18.109Z,1.50
2023-04-26T10:26:52.938Z,1.60
2023-04-26T10:29:19.864Z,1.40
2023-04-26T10:32:09.370Z,1.73
2023-04-26T10:34:38.785Z,1.77
2023-04-26T10:37:12.264Z,2.07
2023-04-26T10:39:39.466Z,2.00
2023-04-26T10:42:24.152Z,2.50
2023-04-26T10:44:52.265Z,2.00
2023-04-26T10:47:29.649Z,1.67
2023-04-26T10:50:22.081Z,1.97
2023-04-26T10:53:02.656Z,1.60
2023-04-26T10:55:38.638Z,1.87
2023-04-26T10:58:24.868Z,2.13
2023-04-26T11:01:06.371Z,2.13
2023-04-26T11:03:33.109Z,2.07
2023-04-26T11:05:59.751Z,2.13
2023-04-26T11:08:26.974Z,1.80
2023-04-26T11:11:06.774Z,2.43
2023-04-26T11:13:37.597Z,1.73
2023-04-26T11:16:05.565Z,1.90
2023-04-26T11:18:32.202Z,2.47
2023-04-26T11:20:58.614Z,2.07
2023-04-26T11:23:25.979Z,2.53
2023-04-26T11:25:52.233Z,2.60
2023-04-26T11:28:19.115Z,2.40
2023-04-26T11:30:45.413Z,2.53
2023-04-26T11:33:19.570Z,2.30
2023-04-26T11:35:46.927Z,2.47
2023-04-26T11:38:13.455Z,2.83
2023-04-26T11:40:40.387Z,2.47
2023-04-26T11:43:06.872Z,2.90
2023-04-26T11:45:33.973Z,2.77
2023-04-26T11:48:01.287Z,3.20
2023-04-26T11:50:27.828Z,3.00
2023-04-26T11:52:55.597Z,2.67
2023-04-26T11:55:27.543Z,3.33
2023-04-26T11:57:54.070Z,2.67
2023-04-26T12:00:21.669Z,2.87
2023-04-26T12:02:48.616Z,2.90
2023-04-26T12:05:25.744Z,2.72
2023-04-26T12:07:52.741Z,2.80
2023-04-26T12:10:29.603Z,2.57
2023-04-26T12:12:56.962Z,2.70
2023-04-26T12:15:23.872Z,2.43
2023-04-26T12:17:58.523Z,2.43
2023-04-26T12:20:35.865Z,2.40
2023-04-26T12:23:06.575Z,2.77
2023-04-26T12:25:33.922Z,2.93
2023-04-26T12:28:00.850Z,2.60
2023-04-26T12:30:28.314Z,2.60
2023-04-26T12:33:00.020Z,2.63
2023-04-26T12:35:29.266Z,2.77
2023-04-26T12:37:57.002Z,2.50
2023-04-26T12:40:23.825Z,2.60
2023-04-26T12:42:50.829Z,3.40
2023-04-26T12:45:18.554Z,3.13
2023-04-26T12:47:45.922Z,2.33
2023-04-26T12:50:12.837Z,2.47
2023-04-26T12:52:40.010Z,2.37
2023-04-26T12:55:07.154Z,2.33
2023-04-26T12:57:33.693Z,2.60
2023-04-26T12:59:59.998Z,2.97
2023-04-26T13:02:26.491Z,2.73
2023-04-26T13:04:52.970Z,2.30
2023-04-26T13:07:19.765Z,2.80
2023-04-26T13:09:46.046Z,2.30
2023-04-26T13:12:12.371Z,3.20
2023-04-26T13:14:39.060Z,2.67
2023-04-26T13:17:05.961Z,2.97
2023-04-26T13:19:32.224Z,2.50
2023-04-26T13:21:58.500Z,2.60
2023-04-26T13:24:25.076Z,2.50
2023-04-26T13:26:51.368Z,2.77
2023-04-26T13:29:17.684Z,2.47
2023-04-26T13:31:43.990Z,2.13
2023-04-26T13:34:10.375Z,2.70
2023-04-26T13:36:36.902Z,2.60
2023-04-26T13:39:04.946Z,2.50
2023-04-26T13:41:33.681Z,3.00
2023-04-26T13:44:00.973Z,2.90
2023-04-26T13:46:27.608Z,2.80
2023-04-26T13:48:53.936Z,2.50
2023-04-26T13:51:20.185Z,2.57
2023-04-26T13:53:46.435Z,2.50
2023-04-26T13:56:12.789Z,2.30
2023-04-26T13:58:40.437Z,2.73
2023-04-26T14:01:06.740Z,2.40
2023-04-26T14:03:33.548Z,3.23
2023-04-26T14:06:00.634Z,2.30
2023-04-26T14:08:26.915Z,2.60
2023-04-26T14:10:53.243Z,2.53
2023-04-26T14:13:19.500Z,2.60
2023-04-26T14:15:45.764Z,2.40
2023-04-26T14:18:12.104Z,2.77
2023-04-26T14:20:38.771Z,2.63
2023-04-26T14:23:05.040Z,2.47
2023-04-26T14:25:31.427Z,2.57
2023-04-26T14:27:57.730Z,2.60
2023-04-26T14:30:24.505Z,3.00
2023-04-26T14:32:50.784Z,2.87
2023-04-26T14:35:17.167Z,2.60
2023-04-26T14:37:43.413Z,2.50
2023-04-26T14:40:09.784Z,2.60
2023-04-26T14:42:36.208Z,2.53
2023-04-26T14:45:02.585Z,2.50
2023-04-26T14:47:29.389Z,2.73
2023-04-26T14:49:56.645Z,2.90
2023-04-26T14:52:27.286Z,2.50
2023-04-26T14:54:53.626Z,2.50
2023-04-26T14:57:19.931Z,2.30
2023-04-26T14:59:46.359Z,2.50
2023-04-26T15:02:12.707Z,2.43
2023-04-26T15:04:39.297Z,2.50
2023-04-26T15:07:05.717Z,2.47
2023-04-26T15:09:32.381Z,2.40
2023-04-26T15:11:58.662Z,2.70
2023-04-26T15:14:25.782Z,2.87
2023-04-26T15:16:52.058Z,2.70
2023-04-26T15:19:18.530Z,2.40
2023-04-26T15:21:44.834Z,3.90
2023-04-26T15:24:11.070Z,2.73
2023-04-26T15:26:37.629Z,2.57
2023-04-26T15:29:04.062Z,2.93
2023-04-26T15:31:30.381Z,2.40
2023-04-26T15:33:56.843Z,2.78
2023-04-26T15:36:23.200Z,2.67
2023-04-26T15:38:49.681Z,2.70
2023-04-26T15:41:16.049Z,2.30
2023-04-26T15:43:42.292Z,2.30
2023-04-26T15:46:08.607Z,2.43
2023-04-26T15:48:34.868Z,2.00
2023-04-26T15:51:04.624Z,2.20
2023-04-26T15:53:30.958Z,2.40
2023-04-26T15:55:57.261Z,2.70
2023-04-26T15:58:26.783Z,2.10
2023-04-26T16:00:53.077Z,2.40
2023-04-26T16:03:20.699Z,2.50
2023-04-26T16:05:47.244Z,2.30
2023-04-26T16:08:17.663Z,2.10
2023-04-26T16:10:50.819Z,2.50
2023-04-26T16:13:17.225Z,2.40
2023-04-26T16:15:43.588Z,2.67
2023-04-26T16:18:09.893Z,2.40
2023-04-26T16:20:36.504Z,2.30
2023-04-26T16:23:02.862Z,2.70
2023-04-26T16:25:29.172Z,2.33
2023-04-26T16:27:55.452Z,3.00
2023-04-26T16:30:22.185Z,2.47
2023-04-26T16:32:48.515Z,2.57
2023-04-26T16:35:15.031Z,2.60
2023-04-26T16:37:41.796Z,2.43
2023-04-26T16:40:10.382Z,2.60
2023-04-26T16:42:36.726Z,3.23
2023-04-26T16:45:03.063Z,3.03
2023-04-26T16:47:29.619Z,2.50
2023-04-26T16:49:56.112Z,2.77
2023-04-26T16:52:22.353Z,2.40
2023-04-26T16:54:48.769Z,2.40
2023-04-26T16:57:15.143Z,2.23
2023-04-26T16:59:41.562Z,2.77
2023-04-26T17:02:07.843Z,2.50
2023-04-26T17:04:34.261Z,2.13
2023-04-26T17:07:00.870Z,2.20
2023-04-26T17:09:27.642Z,2.20
2023-04-26T17:11:54.337Z,2.30
2023-04-26T17:14:20.672Z,2.37
2023-04-26T17:16:46.958Z,2.47
2023-04-26T17:19:14.149Z,2.50
2023-04-26T17:21:40.419Z,2.50
2023-04-26T17:24:07.420Z,2.30
2023-04-26T17:26:33.725Z,5.47
2023-04-26T17:29:00.108Z,2.80
2023-04-26T17:31:26.423Z,2.50
2023-04-26T17:33:52.717Z,4.30
2023-04-26T17:36:19.515Z,2.70
2023-04-26T17:38:46.070Z,2.00
2023-04-26T17:41:17.643Z,2.07
2023-04-26T17:43:44.868Z,2.33
2023-04-26T17:46:11.353Z,2.00
2023-04-26T17:48:37.655Z,2.00
2023-04-26T17:51:04.087Z,2.00
2023-04-26T17:53:30.409Z,2.20
2023-04-26T17:55:56.694Z,2.37
2023-04-26T17:58:23.008Z,2.27
2023-04-26T18:00:49.865Z,2.47
2023-04-26T18:03:16.351Z,2.20
2023-04-26T18:05:42.717Z,1.93
2023-04-26T18:08:09.047Z,2.43
2023-04-26T18:10:35.367Z,1.80
2023-04-26T18:13:01.752Z,2.07
2023-04-26T18:15:28.092Z,2.20
2023-04-26T18:17:54.477Z,2.23
2023-04-26T18:20:21.616Z,2.60
2023-04-26T18:22:47.857Z,2.17
2023-04-26T18:25:14.091Z,2.70
2023-04-26T18:27:40.367Z,2.00
2023-04-26T18:30:08.310Z,2.30
2023-04-26T18:32:34.637Z,2.03
2023-04-26T18:35:01.171Z,2.37
2023-04-26T18:37:27.550Z,2.40
2023-04-26T18:39:53.823Z,2.37
2023-04-26T18:42:20.084Z,2.10
2023-04-26T18:44:46.333Z,2.23
2023-04-26T18:47:12.636Z,2.10
2023-04-26T18:49:38.938Z,2.10
2023-04-26T18:52:08.585Z,2.23
2023-04-26T18:54:35.656Z,2.10
2023-04-26T18:57:03.397Z,2.27
2023-04-26T18:59:34.906Z,2.80
2023-04-26T19:02:01.637Z,2.30
2023-04-26T19:04:28.209Z,2.43
2023-04-26T19:06:54.738Z,2.20
2023-04-26T19:09:21.730Z,2.40
2023-04-26T19:11:47.958Z,2.40
2023-04-26T19:14:14.259Z,2.50
2023-04-26T19:16:40.504Z,2.70
2023-04-26T19:19:06.779Z,3.20
2023-04-26T19:21:33.184Z,3.33
2023-04-26T19:23:59.510Z,3.03
2023-04-26T19:26:25.784Z,3.27
2023-04-26T19:28:52.183Z,2.97
2023-04-26T19:31:18.520Z,2.80
2023-04-26T19:33:45.997Z,3.20
2023-04-26T19:36:12.260Z,2.73
2023-04-26T19:38:38.526Z,3.40
2023-04-26T19:41:04.847Z,3.17
2023-04-26T19:43:31.253Z,3.43
2023-04-26T19:45:57.517Z,2.97
2023-04-26T19:48:23.814Z,2.80
2023-04-26T19:50:50.137Z,3.30
2023-04-26T19:53:16.439Z,3.10
2023-04-26T19:55:42.898Z,2.90
2023-04-26T19:58:10.905Z,3.10
2023-04-26T20:00:38.561Z,3.20
2023-04-26T20:03:05.558Z,2.60
2023-04-26T20:05:32.032Z,2.70
2023-04-26T20:07:58.310Z,2.70
2023-04-26T20:10:24.792Z,2.90
2023-04-26T20:12:51.107Z,2.40
2023-04-26T20:15:17.993Z,2.80
2023-04-26T20:17:44.913Z,2.93
2023-04-26T20:20:12.109Z,2.93
2023-04-26T20:22:38.962Z,2.97
2023-04-26T20:25:06.423Z,2.80
2023-04-26T20:27:32.708Z,3.10
2023-04-26T20:29:58.984Z,3.00
2023-04-26T20:32:25.299Z,3.00
2023-04-26T20:34:51.621Z,3.10
2023-04-26T20:37:17.858Z,2.90
2023-04-26T20:39:44.179Z,2.90
2023-04-26T20:42:10.427Z,3.10
2023-04-26T20:44:37.302Z,2.87
2023-04-26T20:47:03.682Z,2.97
2023-04-26T20:49:30.372Z,3.10
2023-04-26T20:51:57.075Z,3.20
2023-04-26T20:54:23.334Z,2.63
2023-04-26T20:56:49.642Z,3.00
2023-04-26T20:59:19.034Z,3.00
2023-04-26T21:01:45.379Z,3.67
2023-04-26T21:04:11.925Z,3.20
2023-04-26T21:06:38.477Z,3.63
2023-04-26T21:09:05.337Z,3.20
2023-04-26T21:11:31.693Z,3.53
2023-04-26T21:13:58.745Z,2.97
2023-04-26T21:16:25.112Z,3.17
2023-04-26T21:18:51.435Z,3.07
2023-04-26T21:21:17.896Z,3.07
2023-04-26T21:23:44.135Z,3.23
2023-04-26T21:26:10.429Z,3.07
2023-04-26T21:28:36.740Z,3.53
2023-04-26T21:31:06.630Z,2.83
2023-04-26T21:33:33.510Z,3.17
2023-04-26T21:36:00.570Z,3.27
2023-04-26T21:38:27.066Z,3.63
2023-04-26T21:40:53.366Z,3.10
2023-04-26T21:43:20.092Z,3.30
2023-04-26T21:45:53.111Z,3.40
2023-04-26T21:48:19.389Z,3.23
2023-04-26T21:50:47.857Z,3.47
2023-04-26T21:53:14.086Z,3.10
2023-04-26T21:55:40.636Z,3.07
2023-04-26T21:58:06.952Z,2.97
2023-04-26T22:00:33.602Z,2.70
2023-04-26T22:03:00.125Z,3.20
2023-04-26T22:05:26.771Z,2.90
2023-04-26T22:07:53.950Z,2.60
2023-04-26T22:10:20.416Z,2.60
2023-04-26T22:12:46.666Z,2.87
2023-04-26T22:15:13.184Z,2.47
2023-04-26T22:17:39.525Z,2.43
2023-04-26T22:20:06.089Z,2.50
2023-04-26T22:22:32.363Z,2.70
2023-04-26T22:24:58.621Z,2.70
2023-04-26T22:27:25.021Z,2.60
2023-04-26T22:29:51.374Z,2.50
2023-04-26T22:32:17.778Z,2.80
2023-04-26T22:34:44.138Z,2.70
2023-04-26T22:37:20.258Z,2.40
2023-04-26T22:39:47.749Z,2.07
2023-04-26T22:42:14.028Z,2.40
2023-04-26T22:44:40.415Z,2.30
2023-04-26T22:47:06.892Z,2.67
2023-04-26T22:49:33.139Z,2.47
2023-04-26T22:52:07.863Z,2.17
2023-04-26T22:54:40.775Z,2.50
2023-04-26T22:57:08.192Z,2.40
2023-04-26T22:59:34.514Z,2.30
2023-04-26T23:02:01.354Z,2.57
2023-04-26T23:04:27.630Z,2.17
2023-04-26T23:06:53.998Z,2.23
2023-04-26T23:09:20.255Z,2.50
2023-04-26T23:11:46.647Z,1.83
2023-04-26T23:14:12.912Z,2.20
2023-04-26T23:16:39.246Z,2.07
2023-04-26T23:19:05.474Z,2.53
2023-04-26T23:21:32.009Z,2.00
2023-04-26T23:23:58.252Z,2.30
2023-04-26T23:26:24.488Z,2.17
2023-04-26T23:28:51.065Z,1.97
2023-04-26T23:31:17.356Z,2.43
2023-04-26T23:33:43.592Z,2.10
2023-04-26T23:36:10.010Z,2.30
2023-04-26T23:38:36.266Z,2.13
2023-04-26T23:41:02.839Z,2.33
2023-04-26T23:43:29.247Z,2.20
2023-04-26T23:45:55.727Z,2.03
2023-04-26T23:48:22.042Z,2.50
2023-04-26T23:50:48.310Z,1.90
2023-04-26T23:53:14.556Z,1.80
2023-04-26T23:55:40.860Z,2.00
2023-04-26T23:58:07.302Z,2.30
